sensor_id;sensor_type;location;lat;lon;timestamp;P1;durP1;ratioP1;P2;durP2;ratioP2
9836;SDS011;4957;51.412;6.724;2023-10-09T00:02:22;25.27;;;10.73;;
9836;SDS011;4957;51.412;6.724;2023-10-09T00:04:48;25.10;;;12.10;;
9836;SDS011;4957;51.412;6.724;2023-10-09T00:07:16;24.93;;;11.87;;
9836;SDS011;4957;51.412;6.724;2023-10-09T00:09:42;28.27;;;11.27;;
9836;SDS011;4957;51.412;6.724;2023-10-09T00:12:19;28.93;;;11.90;;
9836;SDS011;4957;51.412;6.724;2023-10-09T00:14:48;25.67;;;11.60;;
9836;SDS011;4957;51.412;6.724;2023-10-09T00:17:18;21.07;;;11.47;;
9836;SDS011;4957;51.412;6.724;2023-10-09T00:19:45;26.77;;;11.37;;
9836;SDS011;4957;51.412;6.724;2023-10-09T00:22:16;23.07;;;10.07;;
9836;SDS011;4957;51.412;6.724;2023-10-09T00:24:54;23.67;;;11.70;;
9836;SDS011;4957;51.412;6.724;2023-10-09T00:27:40;25.67;;;10.63;;
9836;SDS011;4957;51.412;6.724;2023-10-09T00:30:08;18.67;;;8.90;;
9836;SDS011;4957;51.412;6.724;2023-10-09T00:32:40;18.83;;;10.73;;
9836;SDS011;4957;51.412;6.724;2023-10-09T00:35:08;29.13;;;11.03;;
9836;SDS011;4957;51.412;6.724;2023-10-09T00:37:53;23.97;;;10.83;;
9836;SDS011;4957;51.412;6.724;2023-10-09T00:40:38;28.90;;;11.67;;
9836;SDS011;4957;51.412;6.724;2023-10-09T00:43:10;26.57;;;12.27;;
9836;SDS011;4957;51.412;6.724;2023-10-09T00:45:38;24.07;;;11.17;;
9836;SDS011;4957;51.412;6.724;2023-10-09T00:48:06;26.30;;;10.90;;
9836;SDS011;4957;51.412;6.724;2023-10-09T00:50:34;26.53;;;12.00;;
9836;SDS011;4957;51.412;6.724;2023-10-09T00:53:04;23.40;;;11.70;;
9836;SDS011;4957;51.412;6.724;2023-10-09T00:55:43;22.63;;;11.33;;
9836;SDS011;4957;51.412;6.724;2023-10-09T00:58:13;25.43;;;10.50;;
9836;SDS011;4957;51.412;6.724;2023-10-09T01:00:48;21.07;;;10.50;;
9836;SDS011;4957;51.412;6.724;2023-10-09T01:03:17;26.10;;;11.07;;
9836;SDS011;4957;51.412;6.724;2023-10-09T01:05:51;25.30;;;10.90;;
9836;SDS011;4957;51.412;6.724;2023-10-09T01:08:33;25.57;;;10.03;;
9836;SDS011;4957;51.412;6.724;2023-10-09T01:11:05;19.17;;;9.87;;
9836;SDS011;4957;51.412;6.724;2023-10-09T01:13:38;22.17;;;11.03;;
9836;SDS011;4957;51.412;6.724;2023-10-09T01:16:11;22.53;;;10.30;;
9836;SDS011;4957;51.412;6.724;2023-10-09T01:18:45;16.53;;;8.13;;
9836;SDS011;4957;51.412;6.724;2023-10-09T01:21:14;16.67;;;9.37;;
9836;SDS011;4957;51.412;6.724;2023-10-09T01:23:46;20.93;;;9.77;;
9836;SDS011;4957;51.412;6.724;2023-10-09T01:26:27;18.10;;;9.57;;
9836;SDS011;4957;51.412;6.724;2023-10-09T01:29:13;20.67;;;9.77;;
9836;SDS011;4957;51.412;6.724;2023-10-09T01:37:03;18.77;;;9.27;;
9836;SDS011;4957;51.412;6.724;2023-10-09T01:39:53;22.07;;;9.13;;
9836;SDS011;4957;51.412;6.724;2023-10-09T01:42:23;19.23;;;9.07;;
9836;SDS011;4957;51.412;6.724;2023-10-09T01:44:57;14.43;;;8.57;;
9836;SDS011;4957;51.412;6.724;2023-10-09T01:47:40;18.30;;;9.40;;
9836;SDS011;4957;51.412;6.724;2023-10-09T01:50:11;16.00;;;9.30;;
9836;SDS011;4957;51.412;6.724;2023-10-09T01:52:45;16.33;;;8.53;;
9836;SDS011;4957;51.412;6.724;2023-10-09T01:55:11;15.20;;;9.00;;
9836;SDS011;4957;51.412;6.724;2023-10-09T01:57:56;17.17;;;9.00;;
9836;SDS011;4957;51.412;6.724;2023-10-09T02:00:30;15.63;;;8.43;;
9836;SDS011;4957;51.412;6.724;2023-10-09T02:03:00;18.17;;;9.20;;
9836;SDS011;4957;51.412;6.724;2023-10-09T02:05:30;16.27;;;8.37;;
9836;SDS011;4957;51.412;6.724;2023-10-09T02:08:01;15.70;;;8.20;;
9836;SDS011;4957;51.412;6.724;2023-10-09T02:10:29;15.77;;;9.23;;
9836;SDS011;4957;51.412;6.724;2023-10-09T02:13:04;16.63;;;8.77;;
9836;SDS011;4957;51.412;6.724;2023-10-09T02:15:40;18.40;;;8.70;;
9836;SDS011;4957;51.412;6.724;2023-10-09T02:18:09;15.80;;;8.37;;
9836;SDS011;4957;51.412;6.724;2023-10-09T02:20:42;18.33;;;8.23;;
9836;SDS011;4957;51.412;6.724;2023-10-09T02:23:10;17.80;;;8.37;;
9836;SDS011;4957;51.412;6.724;2023-10-09T02:25:42;18.33;;;9.10;;
9836;SDS011;4957;51.412;6.724;2023-10-09T02:28:10;15.57;;;8.03;;
9836;SDS011;4957;51.412;6.724;2023-10-09T02:30:45;16.33;;;8.50;;
9836;SDS011;4957;51.412;6.724;2023-10-09T02:33:16;17.53;;;9.13;;
9836;SDS011;4957;51.412;6.724;2023-10-09T02:35:55;14.27;;;8.53;;
9836;SDS011;4957;51.412;6.724;2023-10-09T02:38:30;17.37;;;8.60;;
9836;SDS011;4957;51.412;6.724;2023-10-09T02:40:58;19.97;;;9.00;;
9836;SDS011;4957;51.412;6.724;2023-10-09T02:43:27;14.13;;;8.50;;
9836;SDS011;4957;51.412;6.724;2023-10-09T02:45:59;17.63;;;8.77;;
9836;SDS011;4957;51.412;6.724;2023-10-09T02:48:37;19.13;;;8.77;;
9836;SDS011;4957;51.412;6.724;2023-10-09T02:51:07;15.87;;;8.53;;
9836;SDS011;4957;51.412;6.724;2023-10-09T02:53:40;23.40;;;9.73;;
9836;SDS011;4957;51.412;6.724;2023-10-09T02:56:05;19.60;;;9.13;;
9836;SDS011;4957;51.412;6.724;2023-10-09T02:58:38;16.47;;;9.23;;
9836;SDS011;4957;51.412;6.724;2023-10-09T03:01:11;15.63;;;8.37;;
9836;SDS011;4957;51.412;6.724;2023-10-09T03:03:39;15.37;;;8.63;;
9836;SDS011;4957;51.412;6.724;2023-10-09T03:06:06;18.00;;;9.30;;
9836;SDS011;4957;51.412;6.724;2023-10-09T03:08:38;17.27;;;9.83;;
9836;SDS011;4957;51.412;6.724;2023-10-09T03:11:06;17.43;;;9.47;;
9836;SDS011;4957;51.412;6.724;2023-10-09T03:13:38;23.43;;;9.27;;
9836;SDS011;4957;51.412;6.724;2023-10-09T03:16:13;19.90;;;9.43;;
9836;SDS011;4957;51.412;6.724;2023-10-09T03:18:47;18.43;;;9.37;;
9836;SDS011;4957;51.412;6.724;2023-10-09T03:21:14;19.47;;;10.03;;
9836;SDS011;4957;51.412;6.724;2023-10-09T03:23:42;15.47;;;8.77;;
9836;SDS011;4957;51.412;6.724;2023-10-09T03:26:14;16.80;;;8.93;;
9836;SDS011;4957;51.412;6.724;2023-10-09T03:28:42;18.37;;;9.50;;
9836;SDS011;4957;51.412;6.724;2023-10-09T03:31:10;17.53;;;9.00;;
9836;SDS011;4957;51.412;6.724;2023-10-09T03:33:36;17.10;;;8.67;;
9836;SDS011;4957;51.412;6.724;2023-10-09T03:36:01;14.80;;;8.47;;
9836;SDS011;4957;51.412;6.724;2023-10-09T03:38:32;18.60;;;9.83;;
9836;SDS011;4957;51.412;6.724;2023-10-09T03:41:03;19.47;;;9.37;;
9836;SDS011;4957;51.412;6.724;2023-10-09T03:43:31;21.60;;;9.73;;
9836;SDS011;4957;51.412;6.724;2023-10-09T03:46:06;20.47;;;9.03;;
9836;SDS011;4957;51.412;6.724;2023-10-09T03:48:39;15.63;;;9.13;;
9836;SDS011;4957;51.412;6.724;2023-10-09T03:51:08;15.90;;;9.80;;
9836;SDS011;4957;51.412;6.724;2023-10-09T03:53:35;17.27;;;9.47;;
9836;SDS011;4957;51.412;6.724;2023-10-09T03:56:02;16.13;;;9.47;;
9836;SDS011;4957;51.412;6.724;2023-10-09T03:58:41;16.47;;;9.20;;
9836;SDS011;4957;51.412;6.724;2023-10-09T04:01:15;19.47;;;8.50;;
9836;SDS011;4957;51.412;6.724;2023-10-09T04:03:51;16.90;;;8.73;;
9836;SDS011;4957;51.412;6.724;2023-10-09T04:06:21;16.47;;;8.70;;
9836;SDS011;4957;51.412;6.724;2023-10-09T04:08:47;18.90;;;8.77;;
9836;SDS011;4957;51.412;6.724;2023-10-09T04:11:14;18.10;;;8.50;;
9836;SDS011;4957;51.412;6.724;2023-10-09T04:13:47;20.23;;;10.10;;
9836;SDS011;4957;51.412;6.724;2023-10-09T04:16:24;15.90;;;8.47;;
9836;SDS011;4957;51.412;6.724;2023-10-09T04:18:56;20.87;;;8.83;;
9836;SDS011;4957;51.412;6.724;2023-10-09T04:21:25;15.17;;;8.63;;
9836;SDS011;4957;51.412;6.724;2023-10-09T04:24:04;19.33;;;9.50;;
9836;SDS011;4957;51.412;6.724;2023-10-09T04:26:47;14.33;;;8.67;;
9836;SDS011;4957;51.412;6.724;2023-10-09T04:29:14;18.73;;;8.60;;
9836;SDS011;4957;51.412;6.724;2023-10-09T04:31:55;20.67;;;8.73;;
9836;SDS011;4957;51.412;6.724;2023-10-09T04:34:24;18.00;;;9.33;;
9836;SDS011;4957;51.412;6.724;2023-10-09T04:36:56;19.33;;;9.23;;
9836;SDS011;4957;51.412;6.724;2023-10-09T04:39:25;20.93;;;9.23;;
9836;SDS011;4957;51.412;6.724;2023-10-09T04:41:54;18.07;;;9.07;;
9836;SDS011;4957;51.412;6.724;2023-10-09T04:44:39;17.43;;;9.60;;
9836;SDS011;4957;51.412;6.724;2023-10-09T04:47:33;21.63;;;9.40;;
9836;SDS011;4957;51.412;6.724;2023-10-09T04:50:05;17.77;;;9.17;;
9836;SDS011;4957;51.412;6.724;2023-10-09T04:52:58;20.37;;;9.67;;
9836;SDS011;4957;51.412;6.724;2023-10-09T04:55:44;16.93;;;9.20;;
9836;SDS011;4957;51.412;6.724;2023-10-09T04:58:22;22.17;;;9.67;;
9836;SDS011;4957;51.412;6.724;2023-10-09T05:00:49;21.77;;;9.13;;
9836;SDS011;4957;51.412;6.724;2023-10-09T05:03:24;18.23;;;9.60;;
9836;SDS011;4957;51.412;6.724;2023-10-09T05:05:54;25.67;;;10.03;;
9836;SDS011;4957;51.412;6.724;2023-10-09T05:08:39;16.80;;;9.23;;
9836;SDS011;4957;51.412;6.724;2023-10-09T05:11:11;15.97;;;9.80;;
9836;SDS011;4957;51.412;6.724;2023-10-09T05:13:55;15.40;;;9.27;;
9836;SDS011;4957;51.412;6.724;2023-10-09T05:16:36;17.40;;;9.63;;
9836;SDS011;4957;51.412;6.724;2023-10-09T05:19:03;18.40;;;9.83;;
9836;SDS011;4957;51.412;6.724;2023-10-09T05:21:35;18.97;;;10.17;;
9836;SDS011;4957;51.412;6.724;2023-10-09T05:24:09;19.10;;;9.50;;
9836;SDS011;4957;51.412;6.724;2023-10-09T05:26:39;16.83;;;10.10;;
9836;SDS011;4957;51.412;6.724;2023-10-09T05:29:12;25.33;;;10.80;;
9836;SDS011;4957;51.412;6.724;2023-10-09T05:31:56;19.33;;;10.53;;
9836;SDS011;4957;51.412;6.724;2023-10-09T05:34:27;18.27;;;9.67;;
9836;SDS011;4957;51.412;6.724;2023-10-09T05:37:05;18.77;;;10.30;;
9836;SDS011;4957;51.412;6.724;2023-10-09T05:39:53;18.83;;;9.17;;
9836;SDS011;4957;51.412;6.724;2023-10-09T05:42:25;22.73;;;10.60;;
9836;SDS011;4957;51.412;6.724;2023-10-09T05:45:07;25.43;;;10.93;;
9836;SDS011;4957;51.412;6.724;2023-10-09T05:47:49;21.60;;;9.50;;
9836;SDS011;4957;51.412;6.724;2023-10-09T05:50:22;16.47;;;9.13;;
9836;SDS011;4957;51.412;6.724;2023-10-09T05:52:50;17.43;;;9.67;;
9836;SDS011;4957;51.412;6.724;2023-10-09T05:55:17;20.03;;;9.97;;
9836;SDS011;4957;51.412;6.724;2023-10-09T05:58:01;19.27;;;9.10;;
9836;SDS011;4957;51.412;6.724;2023-10-09T06:00:49;16.47;;;9.33;;
9836;SDS011;4957;51.412;6.724;2023-10-09T06:03:34;20.53;;;9.53;;
9836;SDS011;4957;51.412;6.724;2023-10-09T06:06:19;22.43;;;9.93;;
9836;SDS011;4957;51.412;6.724;2023-10-09T06:09:04;23.70;;;10.47;;
9836;SDS011;4957;51.412;6.724;2023-10-09T06:11:43;23.43;;;10.70;;
9836;SDS011;4957;51.412;6.724;2023-10-09T06:14:21;15.87;;;8.87;;
9836;SDS011;4957;51.412;6.724;2023-10-09T06:16:54;26.50;;;10.47;;
9836;SDS011;4957;51.412;6.724;2023-10-09T06:19:23;16.87;;;9.83;;
9836;SDS011;4957;51.412;6.724;2023-10-09T06:21:56;20.63;;;10.93;;
9836;SDS011;4957;51.412;6.724;2023-10-09T06:24:37;21.07;;;11.07;;
9836;SDS011;4957;51.412;6.724;2023-10-09T06:27:07;26.50;;;11.97;;
9836;SDS011;4957;51.412;6.724;2023-10-09T06:29:37;27.50;;;12.63;;
9836;SDS011;4957;51.412;6.724;2023-10-09T06:32:09;21.90;;;12.13;;
9836;SDS011;4957;51.412;6.724;2023-10-09T06:34:42;25.13;;;12.40;;
9836;SDS011;4957;51.412;6.724;2023-10-09T06:37:50;26.30;;;12.90;;
9836;SDS011;4957;51.412;6.724;2023-10-09T06:40:29;26.37;;;12.43;;
9836;SDS011;4957;51.412;6.724;2023-10-09T06:43:21;28.80;;;13.67;;
9836;SDS011;4957;51.412;6.724;2023-10-09T06:45:47;25.03;;;12.57;;
9836;SDS011;4957;51.412;6.724;2023-10-09T06:48:23;28.67;;;13.57;;
9836;SDS011;4957;51.412;6.724;2023-10-09T06:53:41;27.97;;;13.53;;
9836;SDS011;4957;51.412;6.724;2023-10-09T06:56:27;31.67;;;14.20;;
9836;SDS011;4957;51.412;6.724;2023-10-09T06:58:54;30.07;;;14.87;;
9836;SDS011;4957;51.412;6.724;2023-10-09T07:01:23;29.97;;;13.27;;
9836;SDS011;4957;51.412;6.724;2023-10-09T07:04:12;28.57;;;13.47;;
9836;SDS011;4957;51.412;6.724;2023-10-09T07:06:48;34.20;;;15.30;;
9836;SDS011;4957;51.412;6.724;2023-10-09T07:09:16;32.00;;;15.10;;
9836;SDS011;4957;51.412;6.724;2023-10-09T07:11:48;30.43;;;14.17;;
9836;SDS011;4957;51.412;6.724;2023-10-09T07:14:18;36.17;;;15.00;;
9836;SDS011;4957;51.412;6.724;2023-10-09T07:17:06;30.00;;;15.17;;
9836;SDS011;4957;51.412;6.724;2023-10-09T07:19:52;38.37;;;16.10;;
9836;SDS011;4957;51.412;6.724;2023-10-09T07:22:18;35.33;;;16.37;;
9836;SDS011;4957;51.412;6.724;2023-10-09T07:24:46;41.33;;;17.20;;
9836;SDS011;4957;51.412;6.724;2023-10-09T07:27:22;35.60;;;16.77;;
9836;SDS011;4957;51.412;6.724;2023-10-09T07:30:12;38.87;;;18.13;;
9836;SDS011;4957;51.412;6.724;2023-10-09T07:33:00;46.80;;;19.23;;
9836;SDS011;4957;51.412;6.724;2023-10-09T07:35:43;49.30;;;20.03;;
9836;SDS011;4957;51.412;6.724;2023-10-09T07:40:35;49.93;;;20.10;;
9836;SDS011;4957;51.412;6.724;2023-10-09T07:43:20;52.57;;;21.07;;
9836;SDS011;4957;51.412;6.724;2023-10-09T07:45:52;49.80;;;18.60;;
9836;SDS011;4957;51.412;6.724;2023-10-09T07:48:38;46.50;;;19.27;;
9836;SDS011;4957;51.412;6.724;2023-10-09T07:51:17;57.73;;;20.13;;
9836;SDS011;4957;51.412;6.724;2023-10-09T07:53:48;50.63;;;20.03;;
9836;SDS011;4957;51.412;6.724;2023-10-09T07:56:32;48.87;;;19.40;;
9836;SDS011;4957;51.412;6.724;2023-10-09T07:59:04;50.47;;;19.67;;
9836;SDS011;4957;51.412;6.724;2023-10-09T08:01:36;50.10;;;18.97;;
9836;SDS011;4957;51.412;6.724;2023-10-09T08:04:17;42.40;;;17.87;;
9836;SDS011;4957;51.412;6.724;2023-10-09T08:07:02;47.67;;;17.30;;
9836;SDS011;4957;51.412;6.724;2023-10-09T08:09:40;42.33;;;17.47;;
9836;SDS011;4957;51.412;6.724;2023-10-09T08:12:12;43.80;;;18.33;;
9836;SDS011;4957;51.412;6.724;2023-10-09T08:14:42;40.83;;;18.37;;
9836;SDS011;4957;51.412;6.724;2023-10-09T08:17:13;37.50;;;18.07;;
9836;SDS011;4957;51.412;6.724;2023-10-09T08:19:52;44.03;;;18.50;;
9836;SDS011;4957;51.412;6.724;2023-10-09T08:22:36;38.33;;;19.20;;
9836;SDS011;4957;51.412;6.724;2023-10-09T08:25:08;40.53;;;20.13;;
9836;SDS011;4957;51.412;6.724;2023-10-09T08:27:51;34.80;;;19.27;;
9836;SDS011;4957;51.412;6.724;2023-10-09T08:30:20;41.70;;;18.83;;
9836;SDS011;4957;51.412;6.724;2023-10-09T08:32:50;36.00;;;17.97;;
9836;SDS011;4957;51.412;6.724;2023-10-09T08:35:32;34.47;;;17.30;;
9836;SDS011;4957;51.412;6.724;2023-10-09T08:38:00;27.63;;;16.07;;
9836;SDS011;4957;51.412;6.724;2023-10-09T08:40:33;26.37;;;14.43;;
9836;SDS011;4957;51.412;6.724;2023-10-09T08:48:30;25.20;;;13.00;;
9836;SDS011;4957;51.412;6.724;2023-10-09T08:50:56;28.50;;;13.43;;
9836;SDS011;4957;51.412;6.724;2023-10-09T08:53:22;29.03;;;14.23;;
9836;SDS011;4957;51.412;6.724;2023-10-09T08:55:56;24.50;;;13.73;;
9836;SDS011;4957;51.412;6.724;2023-10-09T08:58:23;31.47;;;14.40;;
9836;SDS011;4957;51.412;6.724;2023-10-09T09:01:02;25.23;;;13.40;;
9836;SDS011;4957;51.412;6.724;2023-10-09T09:03:40;28.67;;;13.37;;
9836;SDS011;4957;51.412;6.724;2023-10-09T09:06:10;25.20;;;13.33;;
9836;SDS011;4957;51.412;6.724;2023-10-09T09:08:37;22.20;;;13.33;;
9836;SDS011;4957;51.412;6.724;2023-10-09T09:11:09;24.47;;;13.10;;
9836;SDS011;4957;51.412;6.724;2023-10-09T09:16:30;20.57;;;13.07;;
9836;SDS011;4957;51.412;6.724;2023-10-09T09:18:57;26.77;;;13.10;;
9836;SDS011;4957;51.412;6.724;2023-10-09T09:21:38;20.70;;;12.63;;
9836;SDS011;4957;51.412;6.724;2023-10-09T09:24:10;21.80;;;11.80;;
9836;SDS011;4957;51.412;6.724;2023-10-09T09:26:57;16.43;;;9.17;;
9836;SDS011;4957;51.412;6.724;2023-10-09T09:32:04;13.30;;;8.63;;
9836;SDS011;4957;51.412;6.724;2023-10-09T09:34:45;12.70;;;9.00;;
9836;SDS011;4957;51.412;6.724;2023-10-09T09:37:13;16.00;;;9.77;;
9836;SDS011;4957;51.412;6.724;2023-10-09T09:39:54;13.03;;;8.80;;
9836;SDS011;4957;51.412;6.724;2023-10-09T09:42:23;16.40;;;8.50;;
9836;SDS011;4957;51.412;6.724;2023-10-09T09:44:52;15.37;;;7.90;;
9836;SDS011;4957;51.412;6.724;2023-10-09T09:47:18;14.77;;;8.80;;
9836;SDS011;4957;51.412;6.724;2023-10-09T09:49:52;14.17;;;8.73;;
9836;SDS011;4957;51.412;6.724;2023-10-09T09:52:25;14.60;;;8.47;;
9836;SDS011;4957;51.412;6.724;2023-10-09T09:54:54;13.63;;;8.40;;
9836;SDS011;4957;51.412;6.724;2023-10-09T09:57:20;14.27;;;7.70;;
9836;SDS011;4957;51.412;6.724;2023-10-09T09:59:51;13.80;;;7.93;;
9836;SDS011;4957;51.412;6.724;2023-10-09T10:02:30;14.40;;;8.00;;
9836;SDS011;4957;51.412;6.724;2023-10-09T10:05:01;15.13;;;7.23;;
9836;SDS011;4957;51.412;6.724;2023-10-09T10:07:33;13.93;;;7.90;;
9836;SDS011;4957;51.412;6.724;2023-10-09T10:13:00;14.13;;;7.60;;
9836;SDS011;4957;51.412;6.724;2023-10-09T10:18:23;18.07;;;11.13;;
9836;SDS011;4957;51.412;6.724;2023-10-09T10:23:39;14.87;;;7.37;;
9836;SDS011;4957;51.412;6.724;2023-10-09T10:26:21;13.97;;;7.53;;
9836;SDS011;4957;51.412;6.724;2023-10-09T10:31:59;13.23;;;7.40;;
9836;SDS011;4957;51.412;6.724;2023-10-09T10:37:21;13.40;;;7.90;;
9836;SDS011;4957;51.412;6.724;2023-10-09T10:40:06;22.93;;;9.00;;
9836;SDS011;4957;51.412;6.724;2023-10-09T10:42:48;11.20;;;7.50;;
9836;SDS011;4957;51.412;6.724;2023-10-09T10:45:36;12.87;;;7.43;;
9836;SDS011;4957;51.412;6.724;2023-10-09T10:48:08;15.53;;;7.57;;
9836;SDS011;4957;51.412;6.724;2023-10-09T10:50:48;22.57;;;8.40;;
9836;SDS011;4957;51.412;6.724;2023-10-09T10:53:23;16.93;;;8.00;;
9836;SDS011;4957;51.412;6.724;2023-10-09T10:55:54;17.63;;;7.47;;
9836;SDS011;4957;51.412;6.724;2023-10-09T10:58:21;14.17;;;7.77;;
9836;SDS011;4957;51.412;6.724;2023-10-09T11:00:53;13.47;;;7.57;;
9836;SDS011;4957;51.412;6.724;2023-10-09T11:03:23;20.03;;;8.83;;
9836;SDS011;4957;51.412;6.724;2023-10-09T11:06:03;12.90;;;7.40;;
9836;SDS011;4957;51.412;6.724;2023-10-09T11:08:46;12.13;;;7.80;;
9836;SDS011;4957;51.412;6.724;2023-10-09T11:11:19;11.03;;;7.43;;
9836;SDS011;4957;51.412;6.724;2023-10-09T11:13:46;14.73;;;7.60;;
9836;SDS011;4957;51.412;6.724;2023-10-09T11:16:19;12.80;;;7.33;;
9836;SDS011;4957;51.412;6.724;2023-10-09T11:19:19;12.10;;;7.40;;
9836;SDS011;4957;51.412;6.724;2023-10-09T11:21:56;19.40;;;8.37;;
9836;SDS011;4957;51.412;6.724;2023-10-09T11:24:30;14.10;;;7.67;;
9836;SDS011;4957;51.412;6.724;2023-10-09T11:26:59;17.63;;;7.43;;
9836;SDS011;4957;51.412;6.724;2023-10-09T11:29:32;16.53;;;7.87;;
9836;SDS011;4957;51.412;6.724;2023-10-09T11:32:08;14.30;;;7.50;;
9836;SDS011;4957;51.412;6.724;2023-10-09T11:34:43;13.27;;;7.57;;
9836;SDS011;4957;51.412;6.724;2023-10-09T11:37:19;13.17;;;7.30;;
9836;SDS011;4957;51.412;6.724;2023-10-09T11:39:53;17.30;;;8.43;;
9836;SDS011;4957;51.412;6.724;2023-10-09T11:42:19;19.53;;;7.83;;
9836;SDS011;4957;51.412;6.724;2023-10-09T11:45:22;16.10;;;8.37;;
9836;SDS011;4957;51.412;6.724;2023-10-09T11:48:16;13.37;;;8.23;;
9836;SDS011;4957;51.412;6.724;2023-10-09T11:50:59;15.10;;;8.30;;
9836;SDS011;4957;51.412;6.724;2023-10-09T11:53:28;13.47;;;7.43;;
9836;SDS011;4957;51.412;6.724;2023-10-09T11:55:53;14.30;;;8.20;;
9836;SDS011;4957;51.412;6.724;2023-10-09T11:58:19;14.37;;;6.87;;
9836;SDS011;4957;51.412;6.724;2023-10-09T12:00:55;16.93;;;9.10;;
9836;SDS011;4957;51.412;6.724;2023-10-09T12:03:27;16.13;;;8.67;;
9836;SDS011;4957;51.412;6.724;2023-10-09T12:05:59;11.30;;;8.50;;
9836;SDS011;4957;51.412;6.724;2023-10-09T12:08:41;14.87;;;7.77;;
9836;SDS011;4957;51.412;6.724;2023-10-09T12:11:13;15.80;;;8.30;;
9836;SDS011;4957;51.412;6.724;2023-10-09T12:13:47;14.10;;;7.97;;
9836;SDS011;4957;51.412;6.724;2023-10-09T12:16:21;13.13;;;8.80;;
9836;SDS011;4957;51.412;6.724;2023-10-09T12:18:52;20.07;;;8.97;;
9836;SDS011;4957;51.412;6.724;2023-10-09T12:21:21;22.83;;;9.20;;
9836;SDS011;4957;51.412;6.724;2023-10-09T12:23:48;12.43;;;8.50;;
9836;SDS011;4957;51.412;6.724;2023-10-09T12:26:14;12.93;;;8.33;;
9836;SDS011;4957;51.412;6.724;2023-10-09T12:28:40;13.17;;;8.57;;
9836;SDS011;4957;51.412;6.724;2023-10-09T12:31:11;14.67;;;8.17;;
9836;SDS011;4957;51.412;6.724;2023-10-09T12:33:46;15.53;;;8.57;;
9836;SDS011;4957;51.412;6.724;2023-10-09T12:36:13;14.77;;;8.33;;
9836;SDS011;4957;51.412;6.724;2023-10-09T12:38:47;14.13;;;7.83;;
9836;SDS011;4957;51.412;6.724;2023-10-09T12:41:17;14.23;;;8.77;;
9836;SDS011;4957;51.412;6.724;2023-10-09T12:43:56;14.07;;;8.10;;
9836;SDS011;4957;51.412;6.724;2023-10-09T12:46:24;13.90;;;9.27;;
9836;SDS011;4957;51.412;6.724;2023-10-09T12:48:57;13.40;;;8.63;;
9836;SDS011;4957;51.412;6.724;2023-10-09T12:51:23;16.97;;;9.57;;
9836;SDS011;4957;51.412;6.724;2023-10-09T12:54:05;18.73;;;9.70;;
9836;SDS011;4957;51.412;6.724;2023-10-09T12:56:41;16.40;;;8.97;;
9836;SDS011;4957;51.412;6.724;2023-10-09T12:59:06;13.27;;;7.83;;
9836;SDS011;4957;51.412;6.724;2023-10-09T13:01:39;14.37;;;8.00;;
9836;SDS011;4957;51.412;6.724;2023-10-09T13:04:15;15.90;;;9.63;;
9836;SDS011;4957;51.412;6.724;2023-10-09T13:06:50;14.07;;;8.77;;
9836;SDS011;4957;51.412;6.724;2023-10-09T13:09:19;15.47;;;9.97;;
9836;SDS011;4957;51.412;6.724;2023-10-09T13:11:59;15.43;;;9.07;;
9836;SDS011;4957;51.412;6.724;2023-10-09T13:14:26;14.13;;;8.00;;
9836;SDS011;4957;51.412;6.724;2023-10-09T13:16:59;21.40;;;10.93;;
9836;SDS011;4957;51.412;6.724;2023-10-09T13:19:25;15.50;;;9.23;;
9836;SDS011;4957;51.412;6.724;2023-10-09T13:21:51;13.00;;;8.60;;
9836;SDS011;4957;51.412;6.724;2023-10-09T13:24:16;20.33;;;10.10;;
9836;SDS011;4957;51.412;6.724;2023-10-09T13:26:43;18.00;;;9.80;;
9836;SDS011;4957;51.412;6.724;2023-10-09T13:29:16;14.50;;;9.27;;
9836;SDS011;4957;51.412;6.724;2023-10-09T13:31:47;13.13;;;8.90;;
9836;SDS011;4957;51.412;6.724;2023-10-09T13:34:14;13.53;;;9.03;;
9836;SDS011;4957;51.412;6.724;2023-10-09T13:36:42;14.30;;;7.97;;
9836;SDS011;4957;51.412;6.724;2023-10-09T13:39:18;13.10;;;9.13;;
9836;SDS011;4957;51.412;6.724;2023-10-09T13:41:56;17.47;;;9.53;;
9836;SDS011;4957;51.412;6.724;2023-10-09T13:44:24;22.47;;;10.27;;
9836;SDS011;4957;51.412;6.724;2023-10-09T13:46:52;14.27;;;8.90;;
9836;SDS011;4957;51.412;6.724;2023-10-09T13:49:18;17.77;;;8.33;;
9836;SDS011;4957;51.412;6.724;2023-10-09T13:51:47;13.27;;;8.27;;
9836;SDS011;4957;51.412;6.724;2023-10-09T13:54:15;15.07;;;9.53;;
9836;SDS011;4957;51.412;6.724;2023-10-09T13:56:49;16.83;;;10.13;;
9836;SDS011;4957;51.412;6.724;2023-10-09T13:59:21;17.40;;;9.73;;
9836;SDS011;4957;51.412;6.724;2023-10-09T14:01:50;16.37;;;10.53;;
9836;SDS011;4957;51.412;6.724;2023-10-09T14:04:16;13.30;;;10.10;;
9836;SDS011;4957;51.412;6.724;2023-10-09T14:06:44;18.13;;;11.10;;
9836;SDS011;4957;51.412;6.724;2023-10-09T14:09:10;19.73;;;11.33;;
9836;SDS011;4957;51.412;6.724;2023-10-09T14:11:53;15.03;;;9.80;;
9836;SDS011;4957;51.412;6.724;2023-10-09T14:14:39;16.13;;;9.73;;
9836;SDS011;4957;51.412;6.724;2023-10-09T14:17:14;23.10;;;10.50;;
9836;SDS011;4957;51.412;6.724;2023-10-09T14:19:46;13.30;;;8.73;;
9836;SDS011;4957;51.412;6.724;2023-10-09T14:22:31;15.03;;;9.17;;
9836;SDS011;4957;51.412;6.724;2023-10-09T14:24:58;18.57;;;10.23;;
9836;SDS011;4957;51.412;6.724;2023-10-09T14:27:36;16.73;;;10.20;;
9836;SDS011;4957;51.412;6.724;2023-10-09T14:30:12;18.17;;;10.27;;
9836;SDS011;4957;51.412;6.724;2023-10-09T14:33:10;15.37;;;8.73;;
9836;SDS011;4957;51.412;6.724;2023-10-09T14:35:44;17.07;;;9.50;;
9836;SDS011;4957;51.412;6.724;2023-10-09T14:38:13;15.07;;;10.53;;
9836;SDS011;4957;51.412;6.724;2023-10-09T14:40:43;21.83;;;10.27;;
9836;SDS011;4957;51.412;6.724;2023-10-09T14:43:10;19.50;;;11.17;;
9836;SDS011;4957;51.412;6.724;2023-10-09T14:45:46;18.13;;;10.10;;
9836;SDS011;4957;51.412;6.724;2023-10-09T14:48:18;15.37;;;11.07;;
9836;SDS011;4957;51.412;6.724;2023-10-09T14:50:53;14.23;;;9.37;;
9836;SDS011;4957;51.412;6.724;2023-10-09T14:53:19;23.50;;;11.37;;
9836;SDS011;4957;51.412;6.724;2023-10-09T14:56:28;21.57;;;12.10;;
9836;SDS011;4957;51.412;6.724;2023-10-09T14:58:53;20.40;;;11.57;;
9836;SDS011;4957;51.412;6.724;2023-10-09T15:01:26;19.73;;;10.87;;
9836;SDS011;4957;51.412;6.724;2023-10-09T15:03:58;18.93;;;10.50;;
9836;SDS011;4957;51.412;6.724;2023-10-09T15:06:27;20.90;;;11.27;;
9836;SDS011;4957;51.412;6.724;2023-10-09T15:08:58;21.47;;;11.67;;
9836;SDS011;4957;51.412;6.724;2023-10-09T15:11:31;20.80;;;10.33;;
9836;SDS011;4957;51.412;6.724;2023-10-09T15:13:56;29.77;;;12.60;;
9836;SDS011;4957;51.412;6.724;2023-10-09T15:16:25;18.43;;;11.77;;
9836;SDS011;4957;51.412;6.724;2023-10-09T15:18:58;17.37;;;10.57;;
9836;SDS011;4957;51.412;6.724;2023-10-09T15:21:34;15.27;;;10.33;;
9836;SDS011;4957;51.412;6.724;2023-10-09T15:24:14;18.83;;;11.23;;
9836;SDS011;4957;51.412;6.724;2023-10-09T15:27:08;15.67;;;10.20;;
9836;SDS011;4957;51.412;6.724;2023-10-09T15:29:40;19.20;;;10.57;;
9836;SDS011;4957;51.412;6.724;2023-10-09T15:32:10;19.23;;;11.63;;
9836;SDS011;4957;51.412;6.724;2023-10-09T15:34:47;16.57;;;11.10;;
9836;SDS011;4957;51.412;6.724;2023-10-09T15:37:13;19.03;;;10.47;;
9836;SDS011;4957;51.412;6.724;2023-10-09T15:39:39;18.23;;;10.87;;
9836;SDS011;4957;51.412;6.724;2023-10-09T15:42:06;19.13;;;10.43;;
9836;SDS011;4957;51.412;6.724;2023-10-09T15:44:39;20.27;;;11.63;;
9836;SDS011;4957;51.412;6.724;2023-10-09T15:47:13;18.43;;;10.13;;
9836;SDS011;4957;51.412;6.724;2023-10-09T15:49:40;24.70;;;11.37;;
9836;SDS011;4957;51.412;6.724;2023-10-09T15:52:09;23.57;;;11.50;;
9836;SDS011;4957;51.412;6.724;2023-10-09T15:54:42;19.97;;;11.00;;
9836;SDS011;4957;51.412;6.724;2023-10-09T15:57:11;20.17;;;10.07;;
9836;SDS011;4957;51.412;6.724;2023-10-09T15:59:41;20.27;;;10.90;;
9836;SDS011;4957;51.412;6.724;2023-10-09T16:02:06;17.07;;;10.80;;
9836;SDS011;4957;51.412;6.724;2023-10-09T16:04:35;20.73;;;10.33;;
9836;SDS011;4957;51.412;6.724;2023-10-09T16:07:07;19.00;;;11.43;;
9836;SDS011;4957;51.412;6.724;2023-10-09T16:09:38;21.13;;;10.70;;
9836;SDS011;4957;51.412;6.724;2023-10-09T16:12:14;22.30;;;11.40;;